createdAt,value
2018-03-18T00:00:45.635Z,953.37
2018-03-18T00:01:45.623Z,953.30
2018-03-18T00:02:45.608Z,953.27
2018-03-18T00:03:45.595Z,953.31
2018-03-18T00:04:45.591Z,953.31
2018-03-18T00:05:45.571Z,953.32
2018-03-18T00:06:45.558Z,953.34
2018-03-18T00:07:45.543Z,953.36
2018-03-18T00:08:45.538Z,953.23
2018-03-18T00:09:45.522Z,953.32
2018-03-18T00:10:45.507Z,953.30
2018-03-18T00:11:45.493Z,953.33
2018-03-18T00:12:45.481Z,953.30
2018-03-18T00:13:45.471Z,953.28
2018-03-18T00:14:45.457Z,953.29
2018-03-18T00:15:45.443Z,953.32
2018-03-18T00:16:45.434Z,953.32
2018-03-18T00:17:45.417Z,953.34
2018-03-18T00:18:45.409Z,953.28
2018-03-18T00:19:45.394Z,953.23
2018-03-18T00:20:45.377Z,953.26
2018-03-18T00:21:45.366Z,953.27
2018-03-18T00:22:45.353Z,953.23
2018-03-18T00:23:45.338Z,953.32
2018-03-18T00:24:45.331Z,953.16
2018-03-18T00:25:45.316Z,953.24
2018-03-18T00:26:45.302Z,953.19
2018-03-18T00:27:45.290Z,953.28
2018-03-18T00:28:45.277Z,953.28
2018-03-18T00:29:45.264Z,953.30
2018-03-18T00:30:45.254Z,953.28
2018-03-18T00:31:45.238Z,953.32
2018-03-18T00:32:45.225Z,953.35
2018-03-18T00:33:45.216Z,953.25
2018-03-18T00:34:45.200Z,953.28
2018-03-18T00:35:45.187Z,953.30
2018-03-18T00:36:45.196Z,953.32
2018-03-18T00:37:45.161Z,953.30
2018-03-18T00:38:45.147Z,953.35
2018-03-18T00:39:45.137Z,953.36
2018-03-18T00:40:45.125Z,953.30
2018-03-18T00:41:45.114Z,953.31
2018-03-18T00:42:45.098Z,953.34
2018-03-18T00:43:45.085Z,953.34
2018-03-18T00:44:45.071Z,953.25
2018-03-18T00:45:45.060Z,953.33
2018-03-18T00:46:45.047Z,953.28
2018-03-18T00:47:45.034Z,953.30
2018-03-18T00:48:45.020Z,953.31
2018-03-18T00:49:45.009Z,953.26
2018-03-18T00:50:44.996Z,953.22
2018-03-18T00:51:44.983Z,953.30
2018-03-18T00:52:44.971Z,953.23
2018-03-18T00:53:44.958Z,953.24
2018-03-18T00:54:44.947Z,953.18
2018-03-18T00:55:44.932Z,953.22
2018-03-18T00:56:44.922Z,953.27
2018-03-18T00:57:44.919Z,953.26
2018-03-18T00:58:44.895Z,953.25
2018-03-18T00:59:44.879Z,953.19
2018-03-18T01:00:44.869Z,953.21
2018-03-18T01:01:44.855Z,953.15
2018-03-18T01:02:44.844Z,953.28
2018-03-18T01:03:44.830Z,953.23
2018-03-18T01:04:44.817Z,953.21
2018-03-18T01:05:44.812Z,953.22
2018-03-18T01:06:44.790Z,953.27
2018-03-18T01:07:44.778Z,953.24
2018-03-18T01:08:44.765Z,953.24
2018-03-18T01:09:44.752Z,953.23
2018-03-18T01:10:44.739Z,953.23
2018-03-18T01:11:44.727Z,953.21
2018-03-18T01:12:44.720Z,953.23
2018-03-18T01:13:44.701Z,953.23
2018-03-18T01:14:44.687Z,953.22
2018-03-18T01:15:44.679Z,953.18
2018-03-18T01:16:44.664Z,953.17
2018-03-18T01:17:44.670Z,953.20
2018-03-18T01:18:44.641Z,953.21
2018-03-18T01:19:44.623Z,953.19
2018-03-18T01:20:44.623Z,953.18
2018-03-18T01:21:44.599Z,953.17
2018-03-18T01:22:44.584Z,953.15
2018-03-18T01:23:44.573Z,953.13
2018-03-18T01:24:44.558Z,953.15
2018-03-18T01:25:44.549Z,953.16
2018-03-18T01:26:44.533Z,953.16
2018-03-18T01:27:44.519Z,953.10
2018-03-18T01:28:44.509Z,953.18
2018-03-18T01:29:44.501Z,953.15
2018-03-18T01:30:44.489Z,953.05
2018-03-18T01:31:44.470Z,953.06
2018-03-18T01:32:44.461Z,953.04
2018-03-18T01:33:44.447Z,953.06
2018-03-18T01:34:44.432Z,952.99
2018-03-18T01:35:44.419Z,953.09
2018-03-18T01:36:44.406Z,953.03
2018-03-18T01:37:44.394Z,953.02
2018-03-18T01:38:44.379Z,953.04
2018-03-18T01:39:44.368Z,952.94
2018-03-18T01:40:44.354Z,952.93
2018-03-18T01:41:44.344Z,952.97
2018-03-18T01:42:44.329Z,952.86
2018-03-18T01:43:44.317Z,952.95
2018-03-18T01:44:44.304Z,952.87
2018-03-18T01:45:44.289Z,952.91
2018-03-18T01:46:44.281Z,952.96
2018-03-18T01:47:44.267Z,952.92
2018-03-18T01:48:44.251Z,952.96
2018-03-18T01:49:44.238Z,952.97
2018-03-18T01:50:44.225Z,952.97
2018-03-18T01:51:44.213Z,952.95
2018-03-18T01:52:44.202Z,952.96
2018-03-18T01:53:44.187Z,952.89
2018-03-18T01:54:44.174Z,952.93
2018-03-18T01:55:44.161Z,952.88
2018-03-18T01:56:44.149Z,952.86
2018-03-18T01:57:44.136Z,952.89
2018-03-18T01:58:44.127Z,952.85
2018-03-18T01:59:44.108Z,952.85
2018-03-18T02:00:44.098Z,952.89
2018-03-18T02:01:44.084Z,952.75
2018-03-18T02:02:44.069Z,952.85
2018-03-18T02:03:44.058Z,952.85
2018-03-18T02:04:44.079Z,952.84
2018-03-18T02:05:44.037Z,952.89
2018-03-18T02:06:44.019Z,952.81
2018-03-18T02:07:44.007Z,952.86
2018-03-18T02:08:43.992Z,952.88
2018-03-18T02:09:43.980Z,952.83
2018-03-18T02:10:43.971Z,952.87
2018-03-18T02:11:43.961Z,952.86
2018-03-18T02:12:43.940Z,952.87
2018-03-18T02:13:43.930Z,952.91
2018-03-18T02:14:43.957Z,952.84
2018-03-18T02:15:43.901Z,952.75
2018-03-18T02:16:43.890Z,952.87
2018-03-18T02:17:43.875Z,952.81
2018-03-18T02:18:43.864Z,952.86
2018-03-18T02:19:43.853Z,952.87
2018-03-18T02:20:43.838Z,952.93
2018-03-18T02:21:43.825Z,952.91
2018-03-18T02:22:43.812Z,952.90
2018-03-18T02:23:43.802Z,952.94
2018-03-18T02:24:43.785Z,952.81
2018-03-18T02:25:43.773Z,952.89
2018-03-18T02:26:43.760Z,952.91
2018-03-18T02:27:43.747Z,952.89
2018-03-18T02:28:43.734Z,952.92
2018-03-18T02:29:43.724Z,952.87
2018-03-18T02:30:43.710Z,952.88
2018-03-18T02:31:43.697Z,952.88
2018-03-18T02:32:43.680Z,952.80
2018-03-18T02:33:43.672Z,952.78
2018-03-18T02:34:43.655Z,952.84
2018-03-18T02:35:43.644Z,952.83
2018-03-18T02:36:43.630Z,952.83
2018-03-18T02:37:43.622Z,952.88
2018-03-18T02:38:43.604Z,952.86
2018-03-18T02:39:43.591Z,952.82
2018-03-18T02:40:43.581Z,952.85
2018-03-18T02:41:43.565Z,952.81
2018-03-18T02:42:43.566Z,952.84
2018-03-18T02:43:43.544Z,952.81
2018-03-18T02:44:43.529Z,952.75
2018-03-18T02:45:43.512Z,952.79
2018-03-18T02:46:43.498Z,952.74
2018-03-18T02:47:43.490Z,952.76
2018-03-18T02:48:43.474Z,952.79
2018-03-18T02:49:43.462Z,952.78
2018-03-18T02:50:43.446Z,952.78
2018-03-18T02:51:43.433Z,952.80
2018-03-18T02:52:43.422Z,952.76
2018-03-18T02:53:43.411Z,952.76
2018-03-18T02:54:43.396Z,952.78
2018-03-18T02:55:43.386Z,952.77
2018-03-18T02:56:43.369Z,952.79
2018-03-18T02:57:43.356Z,952.74
2018-03-18T02:58:43.348Z,952.79
2018-03-18T02:59:43.339Z,952.80
2018-03-18T03:00:43.318Z,952.76
2018-03-18T03:01:43.314Z,952.77
2018-03-18T03:02:43.292Z,952.82
2018-03-18T03:03:43.280Z,952.79
2018-03-18T03:04:43.327Z,952.77
2018-03-18T03:05:43.253Z,952.82
2018-03-18T03:06:43.238Z,952.82
2018-03-18T03:07:43.222Z,952.80
2018-03-18T03:08:43.213Z,952.75
2018-03-18T03:09:43.201Z,952.70
2018-03-18T03:10:43.225Z,952.78
2018-03-18T03:11:43.172Z,952.80
2018-03-18T03:12:43.190Z,952.75
2018-03-18T03:13:43.146Z,952.78
2018-03-18T03:14:43.132Z,952.72
2018-03-18T03:15:43.120Z,952.82
2018-03-18T03:16:43.107Z,952.77
2018-03-18T03:17:43.092Z,952.75
2018-03-18T03:18:43.079Z,952.78
2018-03-18T03:19:43.066Z,952.74
2018-03-18T03:20:43.056Z,952.78
2018-03-18T03:21:43.041Z,952.75
2018-03-18T03:22:43.026Z,952.89
2018-03-18T03:23:43.021Z,952.78
2018-03-18T03:24:43.000Z,952.77
2018-03-18T03:25:42.987Z,952.80
2018-03-18T03:26:42.975Z,952.80
2018-03-18T03:27:42.962Z,952.79
2018-03-18T03:28:42.948Z,952.84
2018-03-18T03:29:42.943Z,952.86
2018-03-18T03:30:42.922Z,952.80
2018-03-18T03:31:42.908Z,952.79
2018-03-18T03:32:42.901Z,952.81
2018-03-18T03:33:42.885Z,952.87
2018-03-18T03:34:42.868Z,952.87
2018-03-18T03:35:42.854Z,952.79
2018-03-18T03:36:42.845Z,952.82
2018-03-18T03:37:42.833Z,952.81
2018-03-18T03:38:42.815Z,952.89
2018-03-18T03:39:42.802Z,952.85
2018-03-18T03:40:42.789Z,952.87
2018-03-18T03:41:42.774Z,952.90
2018-03-18T03:42:42.760Z,952.89
2018-03-18T03:43:42.750Z,952.86
2018-03-18T03:44:42.734Z,952.86
2018-03-18T03:45:42.722Z,952.85
2018-03-18T03:46:42.709Z,952.87
2018-03-18T03:47:42.694Z,952.81
2018-03-18T03:48:42.681Z,952.88
2018-03-18T03:49:42.669Z,952.84
2018-03-18T03:50:42.655Z,952.91
2018-03-18T03:51:42.642Z,952.85
2018-03-18T03:52:42.630Z,952.85
2018-03-18T03:53:42.617Z,952.85
2018-03-18T03:54:42.601Z,952.88
2018-03-18T03:55:42.589Z,952.87
2018-03-18T03:56:42.576Z,952.87
2018-03-18T03:57:42.562Z,952.89
2018-03-18T03:58:42.556Z,952.87
2018-03-18T03:59:42.551Z,952.95
2018-03-18T04:00:42.527Z,952.89
2018-03-18T04:01:42.510Z,952.86
2018-03-18T04:02:42.495Z,952.89
2018-03-18T04:03:42.483Z,952.89
2018-03-18T04:04:42.467Z,952.89
2018-03-18T04:05:42.456Z,952.91
2018-03-18T04:06:42.441Z,952.99
2018-03-18T04:07:42.430Z,952.92
2018-03-18T04:08:42.416Z,953.01
2018-03-18T04:09:42.402Z,952.95
2018-03-18T04:10:42.388Z,952.96
2018-03-18T04:11:42.375Z,952.93
2018-03-18T04:12:42.361Z,952.96
2018-03-18T04:13:42.349Z,952.99
2018-03-18T04:14:42.335Z,952.91
2018-03-18T04:15:42.322Z,952.89
2018-03-18T04:16:42.313Z,952.95
2018-03-18T04:17:42.294Z,952.93
2018-03-18T04:18:42.282Z,952.96
2018-03-18T04:19:42.268Z,952.99
2018-03-18T04:20:42.256Z,952.93
2018-03-18T04:21:42.242Z,952.98
2018-03-18T04:22:42.228Z,953.02
2018-03-18T04:23:42.215Z,952.98
2018-03-18T04:24:42.202Z,953.00
2018-03-18T04:25:42.190Z,952.98
2018-03-18T04:26:42.174Z,952.99
2018-03-18T04:27:42.163Z,952.98
2018-03-18T04:28:42.149Z,952.92
2018-03-18T04:29:42.136Z,952.95
2018-03-18T04:30:42.121Z,953.02
2018-03-18T04:31:42.107Z,952.90
2018-03-18T04:32:42.094Z,952.98
2018-03-18T04:33:42.085Z,952.96
2018-03-18T04:34:42.067Z,953.05
2018-03-18T04:35:42.053Z,953.04
2018-03-18T04:36:42.041Z,953.00
2018-03-18T04:37:42.027Z,952.95
2018-03-18T04:38:42.014Z,953.02
2018-03-18T04:39:42.001Z,953.03
2018-03-18T04:40:41.987Z,953.03
2018-03-18T04:41:41.975Z,953.03
2018-03-18T04:42:41.959Z,952.98
2018-03-18T04:43:41.945Z,953.02
2018-03-18T04:44:41.933Z,953.04
2018-03-18T04:45:41.920Z,953.04
2018-03-18T04:46:41.908Z,953.07
2018-03-18T04:47:41.892Z,953.05
2018-03-18T04:48:41.880Z,953.03
2018-03-18T04:49:41.865Z,953.02
2018-03-18T04:50:41.876Z,953.08
2018-03-18T04:51:41.838Z,953.05
2018-03-18T04:52:41.825Z,953.06
2018-03-18T04:53:41.814Z,953.05
2018-03-18T04:54:41.800Z,953.09
2018-03-18T04:55:41.790Z,953.13
2018-03-18T04:56:41.770Z,953.05
2018-03-18T04:57:41.763Z,953.08
2018-03-18T04:58:41.745Z,953.13
2018-03-18T04:59:41.735Z,953.09
2018-03-18T05:00:41.717Z,953.04
2018-03-18T05:01:41.703Z,953.08
2018-03-18T05:02:41.689Z,953.01
2018-03-18T05:03:41.675Z,953.10
2018-03-18T05:04:41.671Z,953.11
2018-03-18T05:05:41.648Z,953.07
2018-03-18T05:06:41.663Z,953.11
2018-03-18T05:07:41.622Z,953.09
2018-03-18T05:08:41.607Z,953.08
2018-03-18T05:09:41.600Z,953.15
2018-03-18T05:10:41.586Z,953.11
2018-03-18T05:11:41.568Z,953.08
2018-03-18T05:12:41.554Z,953.12
2018-03-18T05:13:41.541Z,953.12
2018-03-18T05:14:41.528Z,953.11
2018-03-18T05:15:41.513Z,953.11
2018-03-18T05:16:41.506Z,953.13
2018-03-18T05:17:41.488Z,953.13
2018-03-18T05:18:41.480Z,953.17
2018-03-18T05:19:41.461Z,953.19
2018-03-18T05:20:41.444Z,953.13
2018-03-18T05:21:41.442Z,953.13
2018-03-18T05:22:41.418Z,953.18
2018-03-18T05:23:41.406Z,953.21
2018-03-18T05:24:41.391Z,953.20
2018-03-18T05:25:41.379Z,953.19
2018-03-18T05:26:41.364Z,953.22
2018-03-18T05:27:41.351Z,953.18
2018-03-18T05:28:41.340Z,953.21
2018-03-18T05:29:41.323Z,953.21
2018-03-18T05:30:41.309Z,953.15
2018-03-18T05:31:41.298Z,953.18
2018-03-18T05:32:41.298Z,953.19
2018-03-18T05:33:41.269Z,953.18
2018-03-18T05:34:41.254Z,953.26
2018-03-18T05:35:41.242Z,953.20
2018-03-18T05:36:41.228Z,953.21
2018-03-18T05:37:41.216Z,953.25
2018-03-18T05:38:41.208Z,953.19
2018-03-18T05:39:41.193Z,953.25
2018-03-18T05:40:41.174Z,953.25
2018-03-18T05:41:41.170Z,953.31
2018-03-18T05:42:41.180Z,953.27
2018-03-18T05:43:41.135Z,953.31
2018-03-18T05:44:41.120Z,953.38
2018-03-18T05:45:41.109Z,953.36
2018-03-18T05:46:41.094Z,953.33
2018-03-18T05:47:41.084Z,953.35
2018-03-18T05:48:41.069Z,953.33
2018-03-18T05:49:41.060Z,953.38
2018-03-18T05:50:41.038Z,953.36
2018-03-18T05:51:41.027Z,953.34
2018-03-18T05:52:41.017Z,953.35
2018-03-18T05:53:41.019Z,953.33
2018-03-18T05:54:40.985Z,953.33
2018-03-18T05:55:40.984Z,953.41
2018-03-18T05:56:40.964Z,953.40
2018-03-18T05:57:40.953Z,953.43
2018-03-18T05:58:40.931Z,953.40
2018-03-18T05:59:40.922Z,953.38
2018-03-18T06:00:40.904Z,953.42
2018-03-18T06:01:40.892Z,953.42
2018-03-18T06:02:40.881Z,953.42
2018-03-18T06:03:40.867Z,953.39
2018-03-18T06:04:40.854Z,953.37
2018-03-18T06:05:40.839Z,953.43
2018-03-18T06:06:40.824Z,953.46
2018-03-18T06:07:40.847Z,953.46
2018-03-18T06:08:40.796Z,953.46
2018-03-18T06:09:40.782Z,953.40
2018-03-18T06:10:40.767Z,953.48
2018-03-18T06:11:40.754Z,953.47
2018-03-18T06:12:40.740Z,953.49
2018-03-18T06:13:40.731Z,953.55
2018-03-18T06:14:40.715Z,953.44
2018-03-18T06:15:40.700Z,953.53
2018-03-18T06:16:40.687Z,953.55
2018-03-18T06:17:40.678Z,953.55
2018-03-18T06:18:40.660Z,953.51
2018-03-18T06:19:40.653Z,953.50
2018-03-18T06:20:40.633Z,953.60
2018-03-18T06:21:40.621Z,953.57
2018-03-18T06:22:40.606Z,953.63
2018-03-18T06:23:40.593Z,953.57
2018-03-18T06:24:40.578Z,953.59
2018-03-18T06:25:40.566Z,953.62
2018-03-18T06:26:40.552Z,953.64
2018-03-18T06:27:40.537Z,953.62
2018-03-18T06:28:40.550Z,953.60
2018-03-18T06:29:40.513Z,953.59
2018-03-18T06:30:40.505Z,953.67
2018-03-18T06:31:40.485Z,953.61
2018-03-18T06:32:40.471Z,953.65
2018-03-18T06:33:40.459Z,953.68
2018-03-18T06:34:40.445Z,953.68
2018-03-18T06:35:40.430Z,953.66
2018-03-18T06:36:40.418Z,953.64
2018-03-18T06:37:40.404Z,953.73
2018-03-18T06:38:40.393Z,953.73
2018-03-18T06:39:40.375Z,953.72
2018-03-18T06:40:40.363Z,953.74
2018-03-18T06:41:40.349Z,953.74
2018-03-18T06:42:40.334Z,953.73
2018-03-18T06:43:40.324Z,953.79
2018-03-18T06:44:40.312Z,953.76
2018-03-18T06:45:40.296Z,953.68
2018-03-18T06:46:40.280Z,953.75
2018-03-18T06:47:40.269Z,953.72
2018-03-18T06:48:40.254Z,953.78
2018-03-18T06:49:40.241Z,953.83
2018-03-18T06:50:40.231Z,953.84
2018-03-18T06:51:40.214Z,953.84
2018-03-18T06:52:40.200Z,953.85
2018-03-18T06:53:40.186Z,953.84
2018-03-18T06:54:40.172Z,953.77
2018-03-18T06:55:40.156Z,953.86
2018-03-18T06:56:40.146Z,953.90
2018-03-18T06:57:40.133Z,953.87
2018-03-18T06:58:40.117Z,953.94
2018-03-18T06:59:40.104Z,953.95
2018-03-18T07:00:40.090Z,954.00
2018-03-18T07:01:40.132Z,953.94
2018-03-18T07:02:40.069Z,953.92
2018-03-18T07:03:40.053Z,953.98
2018-03-18T07:04:40.039Z,954.00
2018-03-18T07:05:40.025Z,953.95
2018-03-18T07:06:40.008Z,953.95
2018-03-18T07:07:39.996Z,953.98
2018-03-18T07:08:39.991Z,953.99
2018-03-18T07:09:39.968Z,954.01
2018-03-18T07:10:39.954Z,953.96
2018-03-18T07:11:39.942Z,954.02
2018-03-18T07:12:39.927Z,954.05
2018-03-18T07:13:39.917Z,954.01
2018-03-18T07:14:39.900Z,953.97
2018-03-18T07:15:39.888Z,954.04
2018-03-18T07:16:39.874Z,954.04
2018-03-18T07:17:39.861Z,954.11
2018-03-18T07:18:39.851Z,954.09
2018-03-18T07:19:39.833Z,954.12
2018-03-18T07:20:39.820Z,954.10
2018-03-18T07:21:39.808Z,954.07
2018-03-18T07:22:39.797Z,954.10
2018-03-18T07:23:39.779Z,954.16
2018-03-18T07:24:39.771Z,954.10
2018-03-18T07:25:39.752Z,954.09
2018-03-18T07:26:40.365Z,954.16
2018-03-18T07:27:39.725Z,954.14
2018-03-18T07:28:39.720Z,954.20
2018-03-18T07:29:39.703Z,954.19
2018-03-18T07:30:39.687Z,954.21
2018-03-18T07:31:39.675Z,954.19
2018-03-18T07:32:39.667Z,954.17
2018-03-18T07:33:39.647Z,954.18
2018-03-18T07:34:39.632Z,954.21
2018-03-18T07:35:39.651Z,954.26
2018-03-18T07:36:39.606Z,954.24
2018-03-18T07:37:39.592Z,954.18
2018-03-18T07:38:39.632Z,954.21
2018-03-18T07:39:39.566Z,954.13
2018-03-18T07:40:39.551Z,954.20
2018-03-18T07:41:39.539Z,954.20
2018-03-18T07:42:39.525Z,954.31
2018-03-18T07:43:39.515Z,954.32
2018-03-18T07:44:39.502Z,954.26
2018-03-18T07:45:39.490Z,954.28
2018-03-18T07:46:39.474Z,954.26
2018-03-18T07:47:39.463Z,954.28
2018-03-18T07:48:39.450Z,954.35
2018-03-18T07:49:39.433Z,954.37
2018-03-18T07:50:39.426Z,954.29
2018-03-18T07:51:39.405Z,954.32
2018-03-18T07:52:39.399Z,954.32
2018-03-18T07:53:39.380Z,954.33
2018-03-18T07:54:39.368Z,954.35
2018-03-18T07:55:39.357Z,954.37
2018-03-18T07:56:39.343Z,954.39
2018-03-18T07:57:39.330Z,954.38
2018-03-18T07:58:39.314Z,954.43
2018-03-18T07:59:39.301Z,954.42
2018-03-18T08:00:39.291Z,954.45
2018-03-18T08:01:39.277Z,954.44
2018-03-18T08:02:39.263Z,954.39
2018-03-18T08:03:39.339Z,954.39
2018-03-18T08:04:39.239Z,954.46
2018-03-18T08:05:39.234Z,954.42
2018-03-18T08:06:39.210Z,954.45
2018-03-18T08:07:39.200Z,954.46
2018-03-18T08:08:39.185Z,954.52
2018-03-18T08:09:39.172Z,954.50
2018-03-18T08:10:39.158Z,954.45
2018-03-18T08:11:39.145Z,954.45
2018-03-18T08:12:39.131Z,954.51
2018-03-18T08:13:39.119Z,954.47
2018-03-18T08:14:39.106Z,954.48
2018-03-18T08:15:39.094Z,954.51
2018-03-18T08:16:39.080Z,954.57
2018-03-18T08:17:39.067Z,954.54
2018-03-18T08:18:39.052Z,954.53
2018-03-18T08:19:39.042Z,954.54
2018-03-18T08:20:39.030Z,954.55
2018-03-18T08:21:39.024Z,954.58
2018-03-18T08:22:39.048Z,954.56
2018-03-18T08:23:38.992Z,954.60
2018-03-18T08:24:38.979Z,954.53
2018-03-18T08:25:38.965Z,954.53
2018-03-18T08:26:38.956Z,954.57
2018-03-18T08:27:38.938Z,954.56
2018-03-18T08:28:38.927Z,954.55
2018-03-18T08:29:38.919Z,954.55
2018-03-18T08:30:38.900Z,954.60
2018-03-18T08:31:38.887Z,954.60
2018-03-18T08:32:38.878Z,954.54
2018-03-18T08:33:38.865Z,954.64
2018-03-18T08:34:38.850Z,954.67
2018-03-18T08:35:38.839Z,954.67
2018-03-18T08:36:38.823Z,954.60
2018-03-18T08:37:38.811Z,954.71
2018-03-18T08:38:38.796Z,954.68
2018-03-18T08:39:38.788Z,954.67
2018-03-18T08:40:38.773Z,954.69
2018-03-18T08:41:38.759Z,954.66
2018-03-18T08:42:38.747Z,954.67
2018-03-18T08:43:38.733Z,954.65
2018-03-18T08:44:38.722Z,954.72
2018-03-18T08:45:38.709Z,954.74
2018-03-18T08:46:38.698Z,954.78
2018-03-18T08:47:38.685Z,954.77
2018-03-18T08:48:38.672Z,954.79
2018-03-18T08:49:38.660Z,954.81
2018-03-18T08:50:38.647Z,954.83
2018-03-18T08:51:38.635Z,954.80
2018-03-18T08:52:38.621Z,954.83
2018-03-18T08:53:38.613Z,954.77
2018-03-18T08:54:38.600Z,954.74
2018-03-18T08:55:38.587Z,954.78
2018-03-18T08:56:38.575Z,954.75
2018-03-18T08:57:38.562Z,954.72
2018-03-18T08:58:38.551Z,954.84
2018-03-18T08:59:38.537Z,954.82
2018-03-18T09:00:38.525Z,954.78
2018-03-18T09:01:38.514Z,954.77
2018-03-18T09:02:38.505Z,954.82
2018-03-18T09:03:38.489Z,954.77
2018-03-18T09:04:38.476Z,954.79
2018-03-18T09:05:38.466Z,954.79
2018-03-18T09:06:38.480Z,954.77
2018-03-18T09:07:38.441Z,954.81
2018-03-18T09:08:38.427Z,954.87
2018-03-18T09:09:38.417Z,954.84
2018-03-18T09:10:38.408Z,954.80
2018-03-18T09:11:38.396Z,954.76
2018-03-18T09:12:38.383Z,954.80
2018-03-18T09:13:38.368Z,954.82
2018-03-18T09:14:38.358Z,954.79
2018-03-18T09:15:38.348Z,954.73
2018-03-18T09:16:38.336Z,954.84
2018-03-18T09:17:38.326Z,954.83
2018-03-18T09:18:38.310Z,954.83
2018-03-18T09:19:38.306Z,954.81
2018-03-18T09:20:38.289Z,954.79
2018-03-18T09:21:38.276Z,954.82
2018-03-18T09:22:38.262Z,954.85
2018-03-18T09:23:38.251Z,954.88
2018-03-18T09:24:38.240Z,954.80
2018-03-18T09:25:38.249Z,954.88
2018-03-18T09:26:38.217Z,954.91
2018-03-18T09:27:38.203Z,954.97
2018-03-18T09:28:38.225Z,954.89
2018-03-18T09:29:38.179Z,954.85
2018-03-18T09:30:38.169Z,954.92
2018-03-18T09:31:38.168Z,954.93
2018-03-18T09:32:38.145Z,954.98
2018-03-18T09:33:38.136Z,954.96
2018-03-18T09:34:38.177Z,954.96
2018-03-18T09:35:38.127Z,954.99
2018-03-18T09:36:38.137Z,955.09
2018-03-18T09:37:38.091Z,955.01
2018-03-18T09:38:38.142Z,955.04
2018-03-18T09:39:38.064Z,955.09
2018-03-18T09:40:38.072Z,955.03
2018-03-18T09:41:38.102Z,955.03
2018-03-18T09:42:38.087Z,955.09
2018-03-18T09:43:38.113Z,955.08
2018-03-18T09:44:38.164Z,955.08
2018-03-18T09:45:38.086Z,955.09
2018-03-18T09:46:37.983Z,955.05
2018-03-18T09:47:37.971Z,955.06
2018-03-18T09:48:37.965Z,955.12
2018-03-18T09:49:37.950Z,955.16
2018-03-18T09:50:37.938Z,955.10
2018-03-18T09:51:37.926Z,955.09
2018-03-18T09:52:37.916Z,955.08
2018-03-18T09:53:37.903Z,955.10
2018-03-18T09:54:37.894Z,955.13
2018-03-18T09:55:37.883Z,955.11
2018-03-18T09:56:37.872Z,955.10
2018-03-18T09:57:37.862Z,955.13
2018-03-18T09:58:37.849Z,955.20
2018-03-18T09:59:37.837Z,955.18
2018-03-18T10:00:37.825Z,955.13
2018-03-18T10:01:37.818Z,955.15
2018-03-18T10:02:37.807Z,955.12
2018-03-18T10:03:37.791Z,955.11
2018-03-18T10:04:37.781Z,955.17
2018-03-18T10:05:37.771Z,955.20
2018-03-18T10:06:37.760Z,955.17
2018-03-18T10:07:37.751Z,955.22
2018-03-18T10:08:37.733Z,955.18
2018-03-18T10:09:37.744Z,955.25
2018-03-18T10:10:37.714Z,955.13
2018-03-18T10:11:37.703Z,955.16
2018-03-18T10:12:37.692Z,955.20
2018-03-18T10:13:37.681Z,955.16
2018-03-18T10:14:37.669Z,955.16
2018-03-18T10:15:37.659Z,955.21
2018-03-18T10:16:37.649Z,955.23
2018-03-18T10:17:37.637Z,955.16
2018-03-18T10:18:37.627Z,955.22
2018-03-18T10:19:37.618Z,955.30
2018-03-18T10:20:37.606Z,955.23
2018-03-18T10:21:37.599Z,955.22
2018-03-18T10:22:37.588Z,955.24
2018-03-18T10:23:37.573Z,955.26
2018-03-18T10:24:37.564Z,955.23
2018-03-18T10:25:37.573Z,955.31
2018-03-18T10:26:37.546Z,955.24
2018-03-18T10:27:37.535Z,955.24
2018-03-18T10:28:37.523Z,955.31
2018-03-18T10:29:37.514Z,955.32
2018-03-18T10:30:37.503Z,955.32
2018-03-18T10:31:37.494Z,955.26
2018-03-18T10:32:37.504Z,955.35
2018-03-18T10:33:37.473Z,955.28
2018-03-18T10:34:37.466Z,955.35
2018-03-18T10:35:37.456Z,955.35
2018-03-18T10:36:37.447Z,955.30
2018-03-18T10:37:37.443Z,955.30
2018-03-18T10:38:37.428Z,955.29
2018-03-18T10:39:37.468Z,955.35
2018-03-18T10:40:37.407Z,955.40
2018-03-18T10:41:37.400Z,955.44
2018-03-18T10:42:37.388Z,955.31
2018-03-18T10:43:37.380Z,955.25
2018-03-18T10:44:37.372Z,955.24
2018-03-18T10:45:37.360Z,955.31
2018-03-18T10:46:37.351Z,955.34
2018-03-18T10:47:37.341Z,955.40
2018-03-18T10:48:37.333Z,955.39
2018-03-18T10:49:37.323Z,955.35
2018-03-18T10:50:37.369Z,955.30
2018-03-18T10:51:37.303Z,955.31
2018-03-18T10:52:37.297Z,955.35
2018-03-18T10:53:37.285Z,955.38
2018-03-18T10:54:37.274Z,955.44
2018-03-18T10:55:37.264Z,955.42
2018-03-18T10:56:37.259Z,955.36
2018-03-18T10:57:37.251Z,955.41
2018-03-18T10:58:37.236Z,955.39
2018-03-18T10:59:37.235Z,955.44
2018-03-18T11:00:37.220Z,955.46
2018-03-18T11:01:37.207Z,955.50
2018-03-18T11:02:37.198Z,955.52
2018-03-18T11:03:37.188Z,955.46
2018-03-18T11:04:37.178Z,955.45
2018-03-18T11:05:37.174Z,955.50
2018-03-18T11:06:37.160Z,955.48
2018-03-18T11:07:37.149Z,955.52
2018-03-18T11:08:37.142Z,955.45
2018-03-18T11:09:37.130Z,955.41
2018-03-18T11:10:37.121Z,955.44
2018-03-18T11:11:37.111Z,955.47
2018-03-18T11:12:37.106Z,955.49
2018-03-18T11:13:37.093Z,955.51
2018-03-18T11:14:37.081Z,955.52
2018-03-18T11:15:37.072Z,955.49
2018-03-18T11:16:37.063Z,955.48
2018-03-18T11:17:37.053Z,955.50
2018-03-18T11:18:37.042Z,955.47
2018-03-18T11:19:37.034Z,955.49
2018-03-18T11:20:37.029Z,955.46
2018-03-18T11:21:37.019Z,955.47
2018-03-18T11:22:37.005Z,955.45
2018-03-18T11:23:36.997Z,955.45
2018-03-18T11:24:36.986Z,955.48
2018-03-18T11:25:36.979Z,955.46
2018-03-18T11:26:36.966Z,955.44
2018-03-18T11:27:36.958Z,955.40
2018-03-18T11:28:36.991Z,955.42
2018-03-18T11:29:36.940Z,955.39
2018-03-18T11:30:36.930Z,955.41
2018-03-18T11:31:36.920Z,955.41
2018-03-18T11:32:36.913Z,955.44
2018-03-18T11:33:36.905Z,955.36
2018-03-18T11:34:36.892Z,955.39
2018-03-18T11:35:36.891Z,955.36
2018-03-18T11:36:36.874Z,955.36
2018-03-18T11:37:36.875Z,955.35
2018-03-18T11:38:36.860Z,955.35
2018-03-18T11:39:36.850Z,955.36
2018-03-18T11:40:36.836Z,955.41
2018-03-18T11:41:36.830Z,955.42
2018-03-18T11:42:36.816Z,955.37
2018-03-18T11:43:39.342Z,955.36
2018-03-18T11:44:36.801Z,955.39
2018-03-18T11:45:36.790Z,955.39
2018-03-18T11:46:36.779Z,955.41
2018-03-18T11:47:36.769Z,955.40
2018-03-18T11:48:36.761Z,955.37
2018-03-18T11:49:36.786Z,955.41
2018-03-18T11:50:36.742Z,955.39
2018-03-18T11:51:36.731Z,955.44
2018-03-18T11:52:36.724Z,955.42
2018-03-18T11:53:36.715Z,955.48
2018-03-18T11:54:36.705Z,955.50
2018-03-18T11:55:36.730Z,955.46
2018-03-18T11:56:36.690Z,955.49
2018-03-18T11:57:36.677Z,955.48
2018-03-18T11:58:36.670Z,955.48
2018-03-18T11:59:36.661Z,955.49
2018-03-18T12:00:36.649Z,955.47
2018-03-18T12:01:36.641Z,955.47
2018-03-18T12:02:36.631Z,955.50
2018-03-18T12:03:36.627Z,955.47
2018-03-18T12:04:36.618Z,955.44
2018-03-18T12:05:36.606Z,955.42
2018-03-18T12:06:36.595Z,955.42
2018-03-18T12:07:36.586Z,955.34
2018-03-18T12:08:36.578Z,955.45
2018-03-18T12:09:36.568Z,955.44
2018-03-18T12:10:36.559Z,955.43
2018-03-18T12:11:36.552Z,955.45
2018-03-18T12:12:36.582Z,955.36
2018-03-18T12:13:36.533Z,955.35
2018-03-18T12:14:36.523Z,955.35
2018-03-18T12:15:36.514Z,955.40
2018-03-18T12:16:36.504Z,955.41
2018-03-18T12:17:36.496Z,955.41
2018-03-18T12:18:36.487Z,955.43
2018-03-18T12:19:36.475Z,955.40
2018-03-18T12:20:36.476Z,955.39
2018-03-18T12:21:36.457Z,955.33
2018-03-18T12:22:36.445Z,955.35
2018-03-18T12:23:36.436Z,955.37
2018-03-18T12:24:36.440Z,955.38
2018-03-18T12:25:36.438Z,955.32
2018-03-18T12:26:36.405Z,955.28
2018-03-18T12:27:36.394Z,955.33
2018-03-18T12:28:36.388Z,955.33